Time;durP1;ratioP1;P1;durP2;ratioP2;P2;SDS_P1;SDS_P2;PMS_P1;PMS_P2;Temp;Humidity;BMP_temperature;BMP_pressure;BME280_temperature;BME280_humidity;BME280_pressure;Samples;Min_cycle;Max_cycle;Signal;HPM_P1;HPM_P2
2022/03/17 00:02:17;;;;;;;;;;;;;;;29.68;16.84;101611.13;5005460;28;873;-33
2022/03/17 00:04:42;;;;;;;;;;;;;;;29.46;17.37;101604.66;5005754;28;1015;-33
2022/03/17 00:07:08;;;;;;;;;;;;;;;29.87;17.10;101606.25;4999485;28;785;-34
2022/03/17 00:09:33;;;;;;;;;;;;;;;29.97;17.16;101602.44;4999020;28;1898;-32
2022/03/17 00:11:59;;;;;;;;;;;;;;;29.96;17.08;101606.19;4999505;28;862;-32
2022/03/17 00:14:24;;;;;;;;;;;;;;;29.96;17.07;101606.19;5014679;28;1045;-33
2022/03/17 00:16:49;;;;;;;;;;;;;;;29.91;17.07;101606.75;4999449;28;840;-32
2022/03/17 00:19:15;;;;;;;;;;;;;;;30.12;16.81;101606.06;5005916;28;868;-31
2022/03/17 00:21:40;;;;;;;;;;;;;;;30.27;16.84;101613.44;4998497;28;955;-33
2022/03/17 00:24:08;;;;;;;;;;;;;;;30.26;16.84;101614.47;4998948;28;849;-34
2022/03/17 00:26:37;;;;;;;;;;;;;;;30.34;16.63;101617.09;5001298;28;818;-33
2022/03/17 00:29:03;;;;;;;;;;;;;;;30.47;16.70;101621.88;5005943;28;1961;-32
2022/03/17 00:31:29;;;;;;;;;;;;;;;30.68;16.23;101623.88;4999058;28;794;-31
2022/03/17 00:33:54;;;;;;;;;;;;;;;30.13;16.80;101624.03;5002672;28;1022;-34
2022/03/17 00:36:19;;;;;;;;;;;;;;;29.99;16.90;101622.97;5017407;28;767;-35
2022/03/17 00:38:45;;;;;;;;;;;;;;;30.07;17.03;101622.03;5017902;28;912;-31
2022/03/17 00:41:10;;;;;;;;;;;;;;;30.19;16.67;101625.16;5007169;28;844;-34
2022/03/17 00:43:36;;;;;;;;;;;;;;;30.02;16.78;101632.59;4998300;28;738;-32
2022/03/17 00:46:01;;;;;;;;;;;;;;;30.32;16.74;101635.44;4998617;28;818;-32
2022/03/17 00:48:26;;;;;;;;;;;;;;;30.10;16.91;101626.25;5001253;28;1911;-32
2022/03/17 00:50:52;;;;;;;;;;;;;;;29.73;16.96;101632.28;5002268;28;782;-32
2022/03/17 00:53:17;;;;;;;;;;;;;;;29.37;17.41;101638.22;5008298;28;753;-32
2022/03/17 00:55:42;;;;;;;;;;;;;;;29.91;17.09;101634.69;4998264;28;858;-33
2022/03/17 00:58:08;;;;;;;;;;;;;;;30.17;16.64;101633.50;4998275;28;804;-32
2022/03/17 01:00:34;;;;;;;;;;;;;;;30.29;16.62;101633.94;4998929;28;886;-30
2022/03/17 01:02:59;;;;;;;;;;;;;;;30.12;16.80;101638.63;4998863;28;833;-36
2022/03/17 01:05:25;;;;;;;;;;;;;;;29.96;16.91;101641.47;5009891;28;872;-32
2022/03/17 01:07:52;;;;;;;;;;;;;;;29.73;17.37;101640.41;5011309;28;822;-33
2022/03/17 01:10:18;;;;;;;;;;;;;;;29.53;16.99;101638.13;5016928;28;1952;-31
2022/03/17 01:12:44;;;;;;;;;;;;;;;29.07;17.62;101633.44;5014608;28;969;-32
2022/03/17 01:15:09;;;;;;;;;;;;;;;29.60;17.26;101651.00;4997879;28;738;-33
2022/03/17 01:17:34;;;;;;;;;;;;;;;29.93;16.88;101648.94;4997755;28;1061;-31
2022/03/17 01:20:00;;;;;;;;;;;;;;;30.02;16.72;101638.03;5004478;28;892;-32
2022/03/17 01:22:25;;;;;;;;;;;;;;;29.80;17.13;101638.69;4997589;28;946;-36
2022/03/17 01:24:51;;;;;;;;;;;;;;;29.52;17.32;101641.03;5003041;28;813;-32
2022/03/17 01:27:20;;;;;;;;;;;;;;;29.63;17.51;101639.81;5016794;28;754;-33
2022/03/17 01:29:45;;;;;;;;;;;;;;;29.67;17.24;101628.44;5016300;28;1965;-33
2022/03/17 01:32:11;;;;;;;;;;;;;;;29.18;17.20;101635.75;5012072;28;814;-35
2022/03/17 01:34:36;;;;;;;;;;;;;;;29.00;17.58;101630.59;5004245;28;1239;-34
2022/03/17 01:37:01;;;;;;;;;;;;;;;29.43;17.67;101632.09;4997336;28;1411;-33
2022/03/17 01:39:26;;;;;;;;;;;;;;;29.46;17.53;101627.16;4997575;28;917;-30
2022/03/17 01:41:55;;;;;;;;;;;;;;;29.60;17.53;101632.03;4998070;28;762;-34
2022/03/17 01:44:21;;;;;;;;;;;;;;;29.67;17.38;101639.28;5004949;28;1413;-33
2022/03/17 01:49:30;;;;;;;;;;;;;;;29.66;17.42;101653.84;5003753;28;1974;-32
2022/03/17 01:51:55;;;;;;;;;;;;;;;29.77;17.23;101658.03;4997276;28;812;-34
2022/03/17 01:54:24;;;;;;;;;;;;;;;29.90;17.10;101664.72;4997760;28;856;-35
2022/03/17 01:56:49;;;;;;;;;;;;;;;29.95;16.85;101667.75;5001934;28;828;-31
2022/03/17 01:59:15;;;;;;;;;;;;;;;30.10;16.82;101680.50;4998499;28;877;-29
2022/03/17 02:01:40;;;;;;;;;;;;;;;30.10;16.99;101680.50;4997453;28;786;-31
2022/03/17 02:04:06;;;;;;;;;;;;;;;30.26;16.53;101677.72;5004486;28;889;-30
2022/03/17 02:06:32;;;;;;;;;;;;;;;30.36;16.66;101690.19;4997071;28;750;-34
2022/03/17 02:08:57;;;;;;;;;;;;;;;30.35;16.80;101688.50;5000504;28;1895;-34
2022/03/17 02:14:07;;;;;;;;;;;;;;;29.26;17.67;101691.78;5004281;28;1088;-32
2022/03/17 02:16:32;;;;;;;;;;;;;;;29.75;17.68;101691.75;4997194;28;751;-30
2022/03/17 02:18:59;;;;;;;;;;;;;;;29.96;17.35;101690.28;5003326;28;944;-32
2022/03/17 02:21:24;;;;;;;;;;;;;;;29.72;17.41;101681.28;4998301;28;812;-35
2022/03/17 02:26:34;;;;;;;;;;;;;;;30.12;16.88;101687.47;5009395;28;596;-31
2022/03/17 02:28:59;;;;;;;;;;;;;;;29.94;17.07;101682.34;5014313;28;1972;-33
2022/03/17 02:31:25;;;;;;;;;;;;;;;30.04;17.05;101682.09;5015575;28;854;-33
2022/03/17 02:33:51;;;;;;;;;;;;;;;30.02;17.05;101692.28;5005120;28;1089;-35
2022/03/17 02:36:18;;;;;;;;;;;;;;;30.17;16.71;101695.91;5002631;28;791;-32
2022/03/17 02:38:43;;;;;;;;;;;;;;;30.18;16.77;101692.16;4996654;28;943;-29
2022/03/17 02:41:09;;;;;;;;;;;;;;;30.08;16.82;101699.69;4997049;28;794;-32
2022/03/17 02:43:34;;;;;;;;;;;;;;;29.94;16.27;101687.75;4996363;28;1078;-33
2022/03/17 02:45:59;;;;;;;;;;;;;;;28.34;17.28;101691.06;4996752;28;754;-29
2022/03/17 02:48:25;;;;;;;;;;;;;;;27.70;18.15;101687.88;5003831;28;886;-30
2022/03/17 02:50:51;;;;;;;;;;;;;;;28.53;17.97;101700.69;4998964;28;1977;-29
2022/03/17 02:53:17;;;;;;;;;;;;;;;28.95;17.08;101700.66;4996480;28;826;-30
2022/03/17 02:55:43;;;;;;;;;;;;;;;29.06;16.89;101694.06;4995501;28;850;-29
2022/03/17 02:58:09;;;;;;;;;;;;;;;29.15;16.82;101701.13;4997014;28;774;-32
2022/03/17 03:00:34;;;;;;;;;;;;;;;29.11;16.71;101704.38;4999328;28;846;-33
2022/03/17 03:03:00;;;;;;;;;;;;;;;28.99;16.75;101704.75;5002479;28;873;-29
2022/03/17 03:05:26;;;;;;;;;;;;;;;29.05;16.75;101714.03;5015702;28;789;-29
2022/03/17 03:07:51;;;;;;;;;;;;;;;29.16;16.76;101720.97;5015369;28;856;-33
2022/03/17 03:10:17;;;;;;;;;;;;;;;28.99;16.58;101734.53;5015649;28;1906;-29
2022/03/17 03:12:42;;;;;;;;;;;;;;;29.07;16.83;101733.66;5014026;28;1080;-27
2022/03/17 03:15:08;;;;;;;;;;;;;;;29.07;16.47;101739.94;5001404;28;845;-30
2022/03/17 03:17:33;;;;;;;;;;;;;;;29.14;16.71;101744.66;4996326;28;857;-32
2022/03/17 03:19:58;;;;;;;;;;;;;;;29.07;16.53;101742.66;5002615;28;763;-29
2022/03/17 03:22:28;;;;;;;;;;;;;;;28.98;16.63;101740.97;4996881;28;941;-30
2022/03/17 03:24:54;;;;;;;;;;;;;;;28.95;16.63;101750.25;4996741;28;825;-28
2022/03/17 03:27:19;;;;;;;;;;;;;;;29.00;16.73;101752.47;5005273;28;1057;-29
2022/03/17 03:29:44;;;;;;;;;;;;;;;29.00;16.77;101759.75;4999914;28;1914;-30
2022/03/17 03:32:10;;;;;;;;;;;;;;;29.18;16.51;101752.28;5000259;28;865;-28
2022/03/17 03:34:35;;;;;;;;;;;;;;;29.27;16.61;101758.53;5005708;28;1276;-31
2022/03/17 03:39:44;;;;;;;;;;;;;;;29.46;16.55;101764.56;5012996;28;1347;-31
2022/03/17 03:42:09;;;;;;;;;;;;;;;29.65;16.49;101770.63;5006836;28;853;-29
2022/03/17 03:44:35;;;;;;;;;;;;;;;29.66;16.74;101765.00;5019219;28;757;-32
2022/03/17 03:47:00;;;;;;;;;;;;;;;29.82;16.45;101771.41;5016752;28;1281;-32
2022/03/17 03:49:26;;;;;;;;;;;;;;;29.85;16.67;101770.19;5014113;28;1910;-29
2022/03/17 03:51:51;;;;;;;;;;;;;;;29.90;16.52;101781.34;5009352;28;863;-36
2022/03/17 03:54:17;;;;;;;;;;;;;;;29.99;16.55;101782.16;5000004;28;840;-34
2022/03/17 03:56:43;;;;;;;;;;;;;;;28.72;17.48;101791.56;4999035;28;844;-32
2022/03/17 03:59:11;;;;;;;;;;;;;;;28.17;17.80;101779.44;4999938;28;797;-32
2022/03/17 04:01:36;;;;;;;;;;;;;;;29.02;17.50;101796.50;5002427;28;1124;-33
2022/03/17 04:04:02;;;;;;;;;;;;;;;29.27;17.13;101798.31;5010164;28;872;-28
2022/03/17 04:06:27;;;;;;;;;;;;;;;29.32;17.28;101804.06;5007644;28;743;-32
2022/03/17 04:08:53;;;;;;;;;;;;;;;29.28;17.26;101792.72;4998929;28;1965;-33
2022/03/17 04:11:18;;;;;;;;;;;;;;;29.26;16.97;101807.47;4999404;28;759;-30
2022/03/17 04:13:43;;;;;;;;;;;;;;;27.66;17.67;101810.81;5006234;28;1120;-33
2022/03/17 04:16:09;;;;;;;;;;;;;;;26.05;18.63;101807.88;4999288;28;914;-28
2022/03/17 04:18:34;;;;;;;;;;;;;;;25.61;18.98;101816.56;5010588;28;1044;-32
2022/03/17 04:21:00;;;;;;;;;;;;;;;25.31;19.29;101820.16;5009668;28;1295;-30
2022/03/17 04:23:25;;;;;;;;;;;;;;;25.09;19.53;101815.09;5011570;28;1191;-29
2022/03/17 04:25:50;;;;;;;;;;;;;;;25.51;19.51;101830.88;4999648;28;926;-31
2022/03/17 04:28:16;;;;;;;;;;;;;;;26.28;18.73;101829.88;4999078;28;929;-34
2022/03/17 04:30:41;;;;;;;;;;;;;;;26.28;18.67;101846.06;5010653;28;1898;-27
2022/03/17 04:33:06;;;;;;;;;;;;;;;26.36;18.69;101855.31;4999641;28;821;-28
2022/03/17 04:35:31;;;;;;;;;;;;;;;26.83;17.98;101864.19;5004205;28;1082;-31
2022/03/17 04:37:57;;;;;;;;;;;;;;;26.74;18.05;101877.63;5012916;28;1219;-30
2022/03/17 04:40:23;;;;;;;;;;;;;;;26.59;18.13;101887.25;5001858;28;1021;-29
2022/03/17 04:42:48;;;;;;;;;;;;;;;26.41;18.08;101880.81;5010276;28;766;-30
2022/03/17 04:45:13;;;;;;;;;;;;;;;26.43;18.41;101887.91;4998446;28;963;-29
2022/03/17 04:47:39;;;;;;;;;;;;;;;26.41;18.20;101888.91;4998518;28;896;-28
2022/03/17 04:50:04;;;;;;;;;;;;;;;26.34;18.39;101905.84;5004648;28;2013;-31
2022/03/17 04:55:13;;;;;;;;;;;;;;;27.13;18.55;101917.00;5008732;28;1238;-33
2022/03/17 04:57:40;;;;;;;;;;;;;;;27.54;18.55;101928.31;5008649;28;1430;-29
2022/03/17 05:00:06;;;;;;;;;;;;;;;27.64;18.74;101920.97;5008768;28;1452;-31
2022/03/17 05:02:31;;;;;;;;;;;;;;;27.93;18.33;101925.22;5008758;28;1339;-28
2022/03/17 05:04:57;;;;;;;;;;;;;;;28.02;18.21;101926.13;4999031;28;1223;-28
2022/03/17 05:07:22;;;;;;;;;;;;;;;28.29;17.85;101926.94;5007726;28;1399;-32
2022/03/17 05:09:47;;;;;;;;;;;;;;;27.10;18.98;101929.97;5006032;28;1955;-29
2022/03/17 05:12:13;;;;;;;;;;;;;;;26.62;19.60;101930.13;5006446;28;1205;-29
2022/03/17 05:14:38;;;;;;;;;;;;;;;27.48;18.56;101940.59;5008828;28;1284;-28
2022/03/17 05:17:03;;;;;;;;;;;;;;;26.70;19.13;101943.72;5010448;28;1181;-29
2022/03/17 05:19:28;;;;;;;;;;;;;;;26.41;19.60;101945.56;5008150;28;1271;-28
2022/03/17 05:21:54;;;;;;;;;;;;;;;26.24;19.83;101949.84;5011291;28;1187;-29
2022/03/17 05:24:19;;;;;;;;;;;;;;;26.16;19.84;101958.69;5006754;28;1201;-29
2022/03/17 05:26:45;;;;;;;;;;;;;;;26.09;20.17;101952.16;5004104;28;1212;-28
2022/03/17 05:29:12;;;;;;;;;;;;;;;26.01;20.34;101952.91;5008063;28;1930;-31
2022/03/17 05:31:37;;;;;;;;;;;;;;;25.90;20.37;101959.34;5009884;28;1374;-29
2022/03/17 05:34:02;;;;;;;;;;;;;;;25.78;20.34;101955.94;5006672;28;1208;-28
2022/03/17 05:36:27;;;;;;;;;;;;;;;26.19;20.17;101954.88;5003735;28;1263;-31
2022/03/17 05:38:53;;;;;;;;;;;;;;;26.58;19.61;101959.25;5006943;28;917;-32
2022/03/17 05:41:18;;;;;;;;;;;;;;;26.79;19.41;101960.88;4997319;28;1127;-32
2022/03/17 05:43:43;;;;;;;;;;;;;;;26.85;19.34;101970.19;4997642;28;933;-29
2022/03/17 05:46:09;;;;;;;;;;;;;;;27.21;19.14;101978.34;4998875;28;885;-28
2022/03/17 05:48:34;;;;;;;;;;;;;;;27.33;19.28;101970.88;5007800;28;1930;-29
2022/03/17 05:50:59;;;;;;;;;;;;;;;27.78;19.08;101983.63;4996463;28;884;-27
2022/03/17 05:53:24;;;;;;;;;;;;;;;27.92;18.94;101974.06;5004575;28;1478;-27
2022/03/17 05:55:50;;;;;;;;;;;;;;;27.98;18.87;101976.97;5007415;28;1149;-31
2022/03/17 05:58:15;;;;;;;;;;;;;;;28.27;18.57;101974.97;4997516;28;782;-30
2022/03/17 06:00:40;;;;;;;;;;;;;;;28.27;18.47;101984.91;5010260;28;809;-29
2022/03/17 06:03:06;;;;;;;;;;;;;;;28.57;19.22;101989.00;4997575;28;837;-30
2022/03/17 06:05:31;;;;;;;;;;;;;;;28.53;18.81;101992.19;5015394;28;941;-27
2022/03/17 06:08:00;;;;;;;;;;;;;;;28.15;18.75;102004.13;5008192;28;887;-31
2022/03/17 06:10:27;;;;;;;;;;;;;;;27.50;19.01;101992.63;4997472;28;1909;-29
2022/03/17 06:12:52;;;;;;;;;;;;;;;27.22;19.21;102001.69;5009268;28;851;-29
2022/03/17 06:15:18;;;;;;;;;;;;;;;27.05;19.63;102008.75;5005384;28;849;-27
2022/03/17 06:17:45;;;;;;;;;;;;;;;26.93;19.88;102001.81;4997305;28;825;-29
2022/03/17 06:20:13;;;;;;;;;;;;;;;27.19;19.65;102007.41;5013531;28;784;-29
2022/03/17 06:22:39;;;;;;;;;;;;;;;27.58;19.46;102008.94;5016429;28;1146;-27
2022/03/17 06:25:05;;;;;;;;;;;;;;;27.69;19.33;102005.19;5009630;28;1215;-32
2022/03/17 06:27:30;;;;;;;;;;;;;;;27.71;19.28;102008.56;5008858;28;1192;-28
2022/03/17 06:29:55;;;;;;;;;;;;;;;27.65;19.24;102019.09;5001940;28;1902;-32
2022/03/17 06:32:21;;;;;;;;;;;;;;;27.56;19.41;102023.63;5003243;28;1308;-28
2022/03/17 06:34:46;;;;;;;;;;;;;;;27.64;19.24;102023.69;5010724;28;1281;-28
2022/03/17 06:37:11;;;;;;;;;;;;;;;27.71;18.82;102032.88;4998282;28;873;-27
2022/03/17 06:39:37;;;;;;;;;;;;;;;27.82;18.80;102028.25;5001809;28;810;-30
2022/03/17 06:42:02;;;;;;;;;;;;;;;27.89;18.66;102033.88;4999567;28;1112;-28
2022/03/17 06:44:27;;;;;;;;;;;;;;;27.98;18.90;102038.34;5016102;28;707;-28
2022/03/17 06:46:53;;;;;;;;;;;;;;;28.20;18.35;102036.97;5015913;28;845;-30
2022/03/17 06:49:18;;;;;;;;;;;;;;;28.21;17.99;102038.66;5001607;28;1898;-29
2022/03/17 06:51:43;;;;;;;;;;;;;;;27.26;18.90;102050.81;5003067;28;881;-28
2022/03/17 06:54:09;;;;;;;;;;;;;;;27.18;19.21;102048.91;5015854;28;802;-29
2022/03/17 06:56:34;;;;;;;;;;;;;;;28.33;18.05;102049.25;5015728;28;870;-29
2022/03/17 06:58:59;;;;;;;;;;;;;;;27.23;18.90;102046.59;5013971;28;1541;-32
2022/03/17 07:01:24;;;;;;;;;;;;;;;26.90;19.44;102078.59;5011659;28;1183;-27
2022/03/17 07:03:50;;;;;;;;;;;;;;;27.06;19.97;102086.06;5012419;28;1225;-28
2022/03/17 07:06:15;;;;;;;;;;;;;;;27.04;19.91;102084.53;5010734;28;1515;-30
2022/03/17 07:08:40;;;;;;;;;;;;;;;27.19;19.34;102091.13;5008798;28;1898;-32
2022/03/17 07:11:06;;;;;;;;;;;;;;;26.78;19.64;102103.06;5000509;28;790;-27
2022/03/17 07:13:31;;;;;;;;;;;;;;;26.84;19.80;102107.03;5013402;28;1251;-30
2022/03/17 07:15:56;;;;;;;;;;;;;;;27.08;19.59;102116.47;5005023;28;1325;-27
2022/03/17 07:18:21;;;;;;;;;;;;;;;27.35;19.62;102122.03;5006904;28;888;-29
2022/03/17 07:20:47;;;;;;;;;;;;;;;27.55;19.45;102138.97;5009229;28;971;-29
2022/03/17 07:23:12;;;;;;;;;;;;;;;27.47;19.50;102138.88;5000162;28;834;-28
2022/03/17 07:25:38;;;;;;;;;;;;;;;27.56;19.06;102143.38;5000172;28;1183;-28
2022/03/17 07:28:04;;;;;;;;;;;;;;;27.43;19.57;102148.28;5007727;28;1367;-28
2022/03/17 07:30:31;;;;;;;;;;;;;;;27.59;18.99;102156.56;5010356;28;1902;-28
2022/03/17 07:32:58;;;;;;;;;;;;;;;27.68;18.54;102162.06;5008015;28;1540;-27
2022/03/17 07:35:25;;;;;;;;;;;;;;;27.84;18.59;102166.84;5016895;28;1237;-28
2022/03/17 07:37:50;;;;;;;;;;;;;;;28.02;18.30;102174.09;5014387;28;1220;-29
2022/03/17 07:40:16;;;;;;;;;;;;;;;28.20;18.26;102179.50;5013446;28;1221;-34
2022/03/17 07:42:42;;;;;;;;;;;;;;;28.40;17.86;102182.94;5011114;28;1103;-27
2022/03/17 07:45:07;;;;;;;;;;;;;;;27.22;19.00;102187.22;5006273;28;1179;-30
2022/03/17 07:47:33;;;;;;;;;;;;;;;26.95;19.32;102189.72;5011346;28;1286;-28
2022/03/17 07:50:00;;;;;;;;;;;;;;;28.04;18.22;102191.03;5016245;28;1887;-28
2022/03/17 07:52:26;;;;;;;;;;;;;;;27.65;18.77;102184.00;5018694;28;826;-29
2022/03/17 07:54:51;;;;;;;;;;;;;;;27.20;19.09;102192.78;5018291;28;734;-31
2022/03/17 07:57:16;;;;;;;;;;;;;;;27.33;19.15;102188.88;5019052;28;877;-30
2022/03/17 07:59:42;;;;;;;;;;;;;;;27.51;19.27;102202.44;5008802;28;1481;-30
2022/03/17 08:02:07;;;;;;;;;;;;;;;27.59;18.95;102201.69;5012268;28;1006;-28
2022/03/17 08:04:32;;;;;;;;;;;;;;;27.98;18.83;102212.28;5010012;28;1289;-29
2022/03/17 08:07:00;;;;;;;;;;;;;;;27.72;18.88;102220.28;5005074;28;825;-27
2022/03/17 08:09:26;;;;;;;;;;;;;;;27.85;18.95;102214.50;5002084;28;1969;-28
2022/03/17 08:11:52;;;;;;;;;;;;;;;27.89;18.65;102225.88;5001519;28;862;-30
2022/03/17 08:14:17;;;;;;;;;;;;;;;27.37;19.26;102230.81;5001811;28;809;-27
2022/03/17 08:16:46;;;;;;;;;;;;;;;27.55;19.37;102238.13;4998771;28;806;-27
2022/03/17 08:19:11;;;;;;;;;;;;;;;28.09;18.86;102246.38;4999581;28;838;-28
2022/03/17 08:21:37;;;;;;;;;;;;;;;28.33;18.52;102250.34;5006461;28;1426;-32
2022/03/17 08:24:02;;;;;;;;;;;;;;;28.44;18.25;102243.88;5009038;28;1587;-29
2022/03/17 08:26:27;;;;;;;;;;;;;;;27.57;18.77;102258.63;5012273;28;1203;-27
2022/03/17 08:28:53;;;;;;;;;;;;;;;27.20;19.31;102262.16;5008974;28;1903;-30
2022/03/17 08:31:18;;;;;;;;;;;;;;;27.32;19.60;102263.69;5013821;28;1235;-29
2022/03/17 08:33:43;;;;;;;;;;;;;;;27.45;19.36;102262.50;5013265;28;1160;-28
2022/03/17 08:36:09;;;;;;;;;;;;;;;27.65;18.91;102260.56;5017884;28;897;-30
2022/03/17 08:38:34;;;;;;;;;;;;;;;28.05;18.55;102268.47;4999510;28;750;-27
2022/03/17 08:40:59;;;;;;;;;;;;;;;27.85;18.90;102265.88;4998858;28;747;-29
2022/03/17 08:43:24;;;;;;;;;;;;;;;27.90;19.06;102262.72;4999040;28;897;-29
2022/03/17 08:51:22;;;;;;;;;;;;;;;28.18;18.40;102274.38;5014155;28;802;-28
2022/03/17 08:53:48;;;;;;;;;;;;;;;28.38;18.36;102279.66;5007439;28;1224;-28
2022/03/17 08:56:13;;;;;;;;;;;;;;;27.74;18.78;102286.72;4999080;28;782;-29
2022/03/17 08:58:38;;;;;;;;;;;;;;;26.99;18.01;102290.19;5008995;28;842;-28
2022/03/17 09:01:04;;;;;;;;;;;;;;;27.54;18.70;102298.59;5012261;28;1397;-31
2022/03/17 09:03:30;;;;;;;;;;;;;;;27.99;18.25;102297.00;5007242;28;1556;-31
2022/03/17 09:05:58;;;;;;;;;;;;;;;28.12;18.26;102304.75;5009930;28;1513;-29
2022/03/17 09:08:23;;;;;;;;;;;;;;;28.09;17.98;102305.06;5002452;28;1278;-28
2022/03/17 09:10:49;;;;;;;;;;;;;;;27.42;18.96;102301.50;5002657;28;1965;-30
2022/03/17 09:13:14;;;;;;;;;;;;;;;27.28;19.36;102318.19;5011085;28;1136;-29
2022/03/17 09:15:40;;;;;;;;;;;;;;;27.29;19.24;102307.22;5017047;28;941;-28
2022/03/17 09:18:11;;;;;;;;;;;;;;;27.35;19.23;102316.56;5001348;28;993;-27
2022/03/17 09:20:37;;;;;;;;;;;;;;;27.81;18.94;102319.41;5012064;28;1231;-33
2022/03/17 09:23:02;;;;;;;;;;;;;;;27.81;18.78;102318.59;5009018;28;1214;-30
2022/03/17 09:25:28;;;;;;;;;;;;;;;27.84;18.56;102319.13;5003883;28;762;-29
2022/03/17 09:27:53;;;;;;;;;;;;;;;27.92;18.46;102328.34;5002089;28;790;-29
2022/03/17 09:30:19;;;;;;;;;;;;;;;28.02;18.50;102322.88;4997981;28;1959;-28
2022/03/17 09:32:47;;;;;;;;;;;;;;;27.71;18.84;102330.28;4999586;28;722;-28
2022/03/17 09:35:13;;;;;;;;;;;;;;;28.02;18.55;102328.28;5004108;28;1034;-29
2022/03/17 09:37:38;;;;;;;;;;;;;;;28.43;17.96;102330.63;5003351;28;787;-31
2022/03/17 09:40:05;;;;;;;;;;;;;;;27.81;18.33;102329.41;4995938;28;1192;-28
2022/03/17 09:42:30;;;;;;;;;;;;;;;27.66;18.66;102324.44;4998193;28;763;-31
2022/03/17 09:44:55;;;;;;;;;;;;;;;27.56;18.79;102327.16;4997377;28;865;-30
2022/03/17 09:47:21;;;;;;;;;;;;;;;27.38;18.93;102333.34;4998063;28;809;-30
2022/03/17 09:49:52;;;;;;;;;;;;;;;27.30;18.60;102335.06;5009474;28;1911;-28
2022/03/17 09:52:18;;;;;;;;;;;;;;;27.34;18.77;102336.50;5004662;28;1081;-29
2022/03/17 09:54:46;;;;;;;;;;;;;;;27.48;18.85;102333.31;5009971;28;1270;-31
2022/03/17 09:57:12;;;;;;;;;;;;;;;27.54;18.56;102331.03;5006512;28;1192;-28
2022/03/17 09:59:37;;;;;;;;;;;;;;;27.70;18.34;102334.00;5012609;28;1009;-27
2022/03/17 10:02:03;;;;;;;;;;;;;;;27.82;18.38;102334.66;5008032;28;1104;-30
2022/03/17 10:04:31;;;;;;;;;;;;;;;28.02;17.86;102347.22;5011199;28;861;-27
2022/03/17 10:06:58;;;;;;;;;;;;;;;28.17;17.71;102348.44;4997213;28;814;-29
2022/03/17 10:09:24;;;;;;;;;;;;;;;28.33;17.84;102347.78;5004951;28;1887;-29
2022/03/17 10:11:59;;;;;;;;;;;;;;;28.19;17.74;102350.97;5008463;28;1247;-28
2022/03/17 10:14:40;;;;;;;;;;;;;;;28.14;17.58;102354.16;5008279;28;1184;-28
2022/03/17 10:17:07;;;;;;;;;;;;;;;28.67;17.01;102357.09;5010640;28;1238;-31
2022/03/17 10:19:32;;;;;;;;;;;;;;;28.05;16.54;102342.38;5007331;28;957;-27
2022/03/17 10:22:12;;;;;;;;;;;;;;;27.79;17.16;102350.31;4999202;28;1296;-29
2022/03/17 10:24:39;;;;;;;;;;;;;;;27.66;18.06;102354.16;5010246;28;1211;-27
2022/03/17 10:27:04;;;;;;;;;;;;;;;27.69;17.90;102344.97;5002727;28;781;-29
2022/03/17 10:29:30;;;;;;;;;;;;;;;27.67;18.08;102355.88;5016047;28;2299;-28
2022/03/17 10:32:09;;;;;;;;;;;;;;;27.61;18.18;102343.81;5013490;28;992;-27
2022/03/17 10:34:51;;;;;;;;;;;;;;;27.54;18.33;102356.22;5007929;28;1217;-27
2022/03/17 10:37:16;;;;;;;;;;;;;;;27.49;18.46;102351.22;5000014;28;845;-29
2022/03/17 10:39:45;;;;;;;;;;;;;;;27.56;18.36;102351.50;4996878;28;773;-29
2022/03/17 10:42:10;;;;;;;;;;;;;;;27.90;18.03;102350.13;5003527;28;744;-30
2022/03/17 10:44:37;;;;;;;;;;;;;;;27.84;18.26;102342.63;4997647;28;829;-31
2022/03/17 10:47:02;;;;;;;;;;;;;;;27.93;18.36;102343.56;4997291;28;988;-28
2022/03/17 10:49:28;;;;;;;;;;;;;;;28.12;18.20;102339.91;5011319;28;1967;-29
2022/03/17 10:51:54;;;;;;;;;;;;;;;28.24;17.72;102345.97;5015753;28;771;-28
2022/03/17 10:54:20;;;;;;;;;;;;;;;27.89;17.66;102245.66;5015096;28;1275;-29
2022/03/17 10:56:57;;;;;;;;;;;;;;;28.66;17.41;102351.84;5002317;28;1164;-27
2022/03/17 10:59:22;;;;;;;;;;;;;;;28.86;17.56;102352.53;5000363;28;845;-27
2022/03/17 11:01:48;;;;;;;;;;;;;;;28.35;17.85;102345.78;5004100;28;1336;-30
2022/03/17 11:04:14;;;;;;;;;;;;;;;27.96;17.77;102344.13;5001917;28;880;-31
2022/03/17 11:06:39;;;;;;;;;;;;;;;28.04;18.23;102339.81;5004762;28;1172;-28
2022/03/17 11:09:05;;;;;;;;;;;;;;;27.93;18.20;102352.53;4998426;28;1961;-27
2022/03/17 11:11:30;;;;;;;;;;;;;;;27.91;18.35;102343.72;4998589;28;801;-29
2022/03/17 11:13:56;;;;;;;;;;;;;;;27.80;18.48;102347.47;4996804;28;862;-29
2022/03/17 11:16:22;;;;;;;;;;;;;;;27.73;18.58;102358.03;4995672;28;967;-28
2022/03/17 11:18:47;;;;;;;;;;;;;;;27.43;19.10;102350.97;5003117;28;886;-29
2022/03/17 11:21:16;;;;;;;;;;;;;;;27.56;19.11;102353.38;4996962;28;865;-30
2022/03/17 11:23:55;;;;;;;;;;;;;;;27.93;18.53;102352.53;4996435;28;1352;-30
2022/03/17 11:26:25;;;;;;;;;;;;;;;27.87;18.81;102351.28;5002868;28;1187;-27
2022/03/17 11:28:50;;;;;;;;;;;;;;;27.94;18.51;102354.25;5005250;28;1910;-31
2022/03/17 11:31:19;;;;;;;;;;;;;;;28.13;18.66;102355.13;5004345;28;1403;-28
2022/03/17 11:33:45;;;;;;;;;;;;;;;28.38;18.23;102357.31;5005377;28;1289;-28
2022/03/17 11:36:10;;;;;;;;;;;;;;;28.91;17.48;102360.19;5005433;28;1260;-32
2022/03/17 11:38:39;;;;;;;;;;;;;;;29.14;17.25;102359.72;5005404;28;1259;-28
2022/03/17 11:41:14;;;;;;;;;;;;;;;29.11;17.45;102360.03;5003972;28;1271;-27
2022/03/17 11:43:40;;;;;;;;;;;;;;;28.83;17.75;102363.66;5008225;28;1330;-30
2022/03/17 11:46:24;;;;;;;;;;;;;;;28.65;17.94;102364.53;5009300;28;1029;-27
2022/03/17 11:48:54;;;;;;;;;;;;;;;28.35;18.14;102366.56;5004637;28;1910;-31
2022/03/17 11:51:19;;;;;;;;;;;;;;;28.29;18.16;102362.59;5009856;28;1207;-27
2022/03/17 11:53:47;;;;;;;;;;;;;;;28.43;17.91;102366.66;5009533;28;1407;-30
2022/03/17 11:56:16;;;;;;;;;;;;;;;28.28;18.29;102371.72;5009217;28;1294;-30
2022/03/17 11:58:43;;;;;;;;;;;;;;;28.34;18.20;102363.00;5012317;28;1180;-28
2022/03/17 12:01:14;;;;;;;;;;;;;;;28.46;17.96;102365.53;5002160;28;975;-27
2022/03/17 12:03:46;;;;;;;;;;;;;;;28.38;18.23;102368.16;5002462;28;1256;-28
2022/03/17 12:06:12;;;;;;;;;;;;;;;28.40;18.08;102375.09;5013074;28;1331;-27
2022/03/17 12:08:38;;;;;;;;;;;;;;;28.33;18.41;102373.97;5007008;28;1197;-27
2022/03/17 12:11:13;;;;;;;;;;;;;;;28.24;18.28;102390.09;5006265;28;1910;-30
2022/03/17 12:13:39;;;;;;;;;;;;;;;28.23;18.58;102390.25;4999537;28;833;-28
2022/03/17 12:16:05;;;;;;;;;;;;;;;28.29;18.75;102389.66;4999502;28;834;-30
2022/03/17 12:18:50;;;;;;;;;;;;;;;28.54;17.92;102386.41;4999235;28;950;-29
2022/03/17 12:21:16;;;;;;;;;;;;;;;28.28;17.98;102390.66;5012701;28;1917;-29
2022/03/17 12:23:49;;;;;;;;;;;;;;;28.55;17.96;102397.09;5011506;28;856;-29
2022/03/17 12:26:15;;;;;;;;;;;;;;;28.47;17.72;102399.69;4999591;28;852;-28
2022/03/17 12:28:46;;;;;;;;;;;;;;;28.24;18.17;102395.50;4998302;28;1380;-27
2022/03/17 12:31:11;;;;;;;;;;;;;;;28.09;18.14;102397.84;5005472;28;1967;-28
2022/03/17 12:33:42;;;;;;;;;;;;;;;27.93;18.70;102392.25;5008525;28;1251;-29
2022/03/17 12:36:08;;;;;;;;;;;;;;;27.89;18.44;102394.41;5006281;28;1188;-27
2022/03/17 12:38:36;;;;;;;;;;;;;;;27.63;19.03;102405.81;5013652;28;1255;-28
2022/03/17 12:41:01;;;;;;;;;;;;;;;27.68;18.99;102410.78;5006731;28;1564;-30
2022/03/17 12:43:27;;;;;;;;;;;;;;;27.72;19.14;102406.84;5005870;28;1426;-29
2022/03/17 12:45:52;;;;;;;;;;;;;;;27.82;18.89;102412.22;5000313;28;1176;-29
2022/03/17 12:48:17;;;;;;;;;;;;;;;27.95;18.85;102406.47;5004393;28;1323;-29
2022/03/17 12:50:44;;;;;;;;;;;;;;;27.63;18.83;102413.94;5007618;28;1975;-30
2022/03/17 12:53:09;;;;;;;;;;;;;;;27.68;19.05;102422.50;5006927;28;1386;-27
2022/03/17 12:55:34;;;;;;;;;;;;;;;27.89;18.55;102413.34;5008382;28;1114;-30
2022/03/17 12:58:04;;;;;;;;;;;;;;;28.13;18.28;102419.22;5011088;28;1310;-28
2022/03/17 13:00:29;;;;;;;;;;;;;;;28.38;18.14;102419.56;5008244;28;1057;-27
2022/03/17 13:02:55;;;;;;;;;;;;;;;28.31;17.75;102409.28;5010294;28;1172;-28
2022/03/17 13:08:05;;;;;;;;;;;;;;;28.48;17.98;102409.50;5010594;28;1249;-27